Time;durP1;ratioP1;P1;durP2;ratioP2;P2;SDS_P1;SDS_P2;PMS_P1;PMS_P2;Temp;Humidity;BMP_temperature;BMP_pressure;BME280_temperature;BME280_humidity;BME280_pressure;Samples;Min_cycle;Max_cycle;Signal;HPM_P1;HPM_P2
2023/10/22 00:02:15;;;;;;;1.67;0.80;;;11.90;99.90;;;;;;5027497;28;20056;-77
2023/10/22 00:04:40;;;;;;;0.82;0.50;;;11.90;99.90;;;;;;5043722;28;20521;-76
2023/10/22 00:07:07;;;;;;;3.03;0.80;;;11.90;99.90;;;;;;5044039;28;20049;-76
2023/10/22 00:09:33;;;;;;;0.68;0.50;;;11.90;99.90;;;;;;5044107;28;20063;-76
2023/10/22 00:11:59;;;;;;;1.52;0.65;;;11.80;99.90;;;;;;5044428;28;20136;-76
2023/10/22 00:14:25;;;;;;;0.85;0.68;;;11.80;99.90;;;;;;5029749;28;20633;-76
2023/10/22 00:16:50;;;;;;;3.40;0.60;;;11.80;99.90;;;;;;5065161;28;20044;-76
2023/10/22 00:19:16;;;;;;;0.98;0.70;;;11.80;99.90;;;;;;5053652;28;20579;-76
2023/10/22 00:21:41;;;;;;;9.15;0.95;;;11.80;99.90;;;;;;5043942;28;20406;-77
2023/10/22 00:24:07;;;;;;;3.45;1.30;;;11.80;99.90;;;;;;5043879;28;20086;-76
2023/10/22 00:26:33;;;;;;;3.10;0.47;;;11.80;99.90;;;;;;5035609;28;20056;-76
2023/10/22 00:28:58;;;;;;;3.33;1.50;;;11.80;99.90;;;;;;5026517;28;20040;-77
2023/10/22 00:31:24;;;;;;;1.77;0.40;;;11.80;99.90;;;;;;5053044;28;20106;-76
2023/10/22 00:33:49;;;;;;;3.45;0.60;;;11.80;99.90;;;;;;5047152;28;20592;-77
2023/10/22 00:36:15;;;;;;;2.97;0.55;;;11.80;99.90;;;;;;5062195;28;20109;-76
2023/10/22 00:38:40;;;;;;;0.57;0.43;;;11.80;99.90;;;;;;5062902;28;20056;-77
2023/10/22 00:41:06;;;;;;;2.47;0.80;;;11.80;99.90;;;;;;5063563;28;20083;-77
2023/10/22 00:43:32;;;;;;;5.28;1.08;;;11.80;99.90;;;;;;5062338;28;20473;-76
2023/10/22 00:45:57;;;;;;;1.25;0.50;;;11.90;99.90;;;;;;5063567;28;20045;-77
2023/10/22 00:48:25;;;;;;;2.00;0.70;;;11.90;99.90;;;;;;5063790;28;20048;-77
2023/10/22 00:50:51;;;;;;;0.80;0.40;;;11.80;99.90;;;;;;5063055;28;20032;-76
2023/10/22 00:53:17;;;;;;;0.60;0.50;;;11.90;99.90;;;;;;5063082;28;20530;-77
2023/10/22 00:55:47;;;;;;;1.13;0.40;;;11.90;99.90;;;;;;5045940;28;20076;-77
2023/10/22 00:58:15;;;;;;;1.02;0.70;;;11.80;99.90;;;;;;5063115;28;20130;-77
2023/10/22 01:00:41;;;;;;;2.65;0.50;;;11.80;99.90;;;;;;5063178;28;20152;-77
2023/10/22 01:03:07;;;;;;;1.30;0.60;;;11.80;99.90;;;;;;5063332;28;20556;-77
2023/10/22 01:05:37;;;;;;;1.92;1.02;;;11.80;99.90;;;;;;5064000;28;20036;-77
2023/10/22 01:08:06;;;;;;;0.50;0.30;;;11.80;99.90;;;;;;5061188;28;20055;-77
2023/10/22 01:10:32;;;;;;;2.83;0.45;;;11.80;99.90;;;;;;5045407;28;20049;-77
2023/10/22 01:12:59;;;;;;;0.20;0.20;;;11.70;99.90;;;;;;5061991;28;20411;-76
2023/10/22 01:15:24;;;;;;;2.88;0.90;;;11.70;99.90;;;;;;5062385;28;20056;-76
2023/10/22 01:17:50;;;;;;;3.90;0.80;;;11.70;99.90;;;;;;5062377;28;20059;-77
2023/10/22 01:20:16;;;;;;;1.42;0.60;;;11.70;99.90;;;;;;5045610;28;20087;-77
2023/10/22 01:22:41;;;;;;;2.30;1.00;;;11.70;99.90;;;;;;5061728;28;20368;-77
2023/10/22 01:25:07;;;;;;;1.02;0.60;;;11.70;99.90;;;;;;5062397;28;20105;-76
2023/10/22 01:27:33;;;;;;;3.40;1.63;;;11.60;99.90;;;;;;5062720;28;20048;-76
2023/10/22 01:29:59;;;;;;;0.63;0.55;;;11.60;99.90;;;;;;5062347;28;20045;-76
2023/10/22 01:32:30;;;;;;;0.50;0.50;;;11.60;99.90;;;;;;5061925;28;20407;-76
2023/10/22 01:34:59;;;;;;;1.73;1.00;;;11.60;99.90;;;;;;5063928;28;20048;-76
2023/10/22 01:37:24;;;;;;;1.15;0.80;;;11.60;99.90;;;;;;5061261;28;20103;-76
2023/10/22 01:39:51;;;;;;;0.40;0.40;;;11.60;99.90;;;;;;5061221;28;20494;-76
2023/10/22 01:42:17;;;;;;;2.58;0.50;;;11.60;99.90;;;;;;5061936;28;20119;-76
2023/10/22 01:44:42;;;;;;;2.33;1.08;;;11.60;99.90;;;;;;5063412;28;20174;-76
2023/10/22 01:47:10;;;;;;;1.45;0.65;;;11.60;99.90;;;;;;5063288;28;20463;-76
2023/10/22 01:49:36;;;;;;;2.22;0.70;;;11.60;99.90;;;;;;5062566;28;20040;-76
2023/10/22 01:52:02;;;;;;;0.50;0.50;;;11.60;99.90;;;;;;5043543;28;20044;-76
2023/10/22 01:54:28;;;;;;;2.67;1.52;;;11.60;99.90;;;;;;5039649;28;20067;-76
2023/10/22 01:56:53;;;;;;;1.65;1.00;;;11.60;99.90;;;;;;5042190;28;20755;-76
2023/10/22 01:59:19;;;;;;;1.30;0.50;;;11.60;99.90;;;;;;5041345;28;20133;-76
2023/10/22 02:01:44;;;;;;;1.30;0.32;;;11.60;99.90;;;;;;5025456;28;20140;-76
2023/10/22 02:04:10;;;;;;;1.88;0.70;;;11.60;99.90;;;;;;5062908;28;20036;-76
2023/10/22 02:06:36;;;;;;;0.30;0.30;;;11.60;99.90;;;;;;5055812;28;20040;-76
2023/10/22 02:09:01;;;;;;;0.75;0.70;;;11.60;99.90;;;;;;5040694;28;20051;-76
2023/10/22 02:11:27;;;;;;;0.63;0.40;;;11.60;99.90;;;;;;5041021;28;20057;-76
2023/10/22 02:13:53;;;;;;;1.80;0.52;;;11.60;99.90;;;;;;5045083;28;20053;-76
2023/10/22 02:16:21;;;;;;;0.60;0.43;;;11.60;99.90;;;;;;5062650;28;20048;-76
2023/10/22 02:18:47;;;;;;;3.63;0.80;;;11.60;99.90;;;;;;5042844;28;20498;-76
2023/10/22 02:21:13;;;;;;;0.85;0.80;;;11.60;99.90;;;;;;5041073;28;20040;-77
2023/10/22 02:23:39;;;;;;;0.90;0.68;;;11.60;99.90;;;;;;5039582;28;20084;-76
2023/10/22 02:26:05;;;;;;;2.63;0.60;;;11.60;99.90;;;;;;5041483;28;20053;-76
2023/10/22 02:28:32;;;;;;;1.48;0.55;;;11.50;99.90;;;;;;5024370;28;20041;-76
2023/10/22 02:30:58;;;;;;;0.50;0.50;;;11.60;99.90;;;;;;5042456;28;20040;-76
2023/10/22 02:33:23;;;;;;;0.93;0.55;;;11.60;99.90;;;;;;5042219;28;20040;-76
2023/10/22 02:35:49;;;;;;;1.48;0.90;;;11.60;99.90;;;;;;5041939;28;20467;-76
2023/10/22 02:38:15;;;;;;;2.60;1.02;;;11.60;99.90;;;;;;5039471;28;20450;-76
2023/10/22 02:40:41;;;;;;;0.93;0.60;;;11.50;99.90;;;;;;5040912;28;20755;-76
2023/10/22 02:43:07;;;;;;;1.00;0.47;;;11.60;99.90;;;;;;5041641;28;20043;-76
2023/10/22 02:45:33;;;;;;;1.25;0.50;;;11.60;99.90;;;;;;5039929;28;20040;-76
2023/10/22 02:47:59;;;;;;;0.85;0.80;;;11.60;99.90;;;;;;5042305;28;20045;-77
2023/10/22 02:50:26;;;;;;;0.50;0.40;;;11.60;99.90;;;;;;5039706;28;20083;-76
2023/10/22 02:52:55;;;;;;;2.03;0.98;;;11.60;99.90;;;;;;5023128;28;20086;-76
2023/10/22 02:55:21;;;;;;;2.70;0.93;;;11.60;99.90;;;;;;5040447;28;20158;-76
2023/10/22 02:57:47;;;;;;;1.77;0.88;;;11.60;99.90;;;;;;5041464;28;20041;-76
2023/10/22 03:00:14;;;;;;;1.83;0.93;;;11.60;99.90;;;;;;5023469;28;20038;-76
2023/10/22 03:02:40;;;;;;;1.52;0.80;;;11.60;99.90;;;;;;5041951;28;20459;-76
2023/10/22 03:05:06;;;;;;;1.00;0.70;;;11.60;99.90;;;;;;5040684;28;20422;-76
2023/10/22 03:07:32;;;;;;;1.38;0.80;;;11.60;99.90;;;;;;5039268;28;20037;-76
2023/10/22 03:09:58;;;;;;;0.93;0.85;;;11.60;99.90;;;;;;5040439;28;20407;-76
2023/10/22 03:12:24;;;;;;;2.08;0.80;;;11.60;99.90;;;;;;5040063;28;20132;-76
2023/10/22 03:14:51;;;;;;;1.77;0.98;;;11.60;99.90;;;;;;5041838;28;20577;-76
2023/10/22 03:17:17;;;;;;;0.68;0.60;;;11.60;99.90;;;;;;5040589;28;20393;-77
2023/10/22 03:19:42;;;;;;;1.10;0.85;;;11.60;99.90;;;;;;5062178;28;20052;-76
2023/10/22 03:22:08;;;;;;;1.73;1.17;;;11.60;99.90;;;;;;5043628;28;20081;-77
2023/10/22 03:24:34;;;;;;;2.33;1.08;;;11.60;99.90;;;;;;5039368;28;20056;-76
2023/10/22 03:27:00;;;;;;;1.20;0.90;;;11.60;99.90;;;;;;5041723;28;20487;-76
2023/10/22 03:29:25;;;;;;;0.55;0.50;;;11.60;99.90;;;;;;5039691;28;20041;-77
2023/10/22 03:31:52;;;;;;;1.27;0.80;;;11.60;99.90;;;;;;5023868;28;20661;-76
2023/10/22 03:34:17;;;;;;;1.08;0.85;;;11.60;99.90;;;;;;5040728;28;20589;-77
2023/10/22 03:36:44;;;;;;;2.75;1.30;;;11.60;99.90;;;;;;5040169;28;20124;-77
2023/10/22 03:39:10;;;;;;;1.20;0.93;;;11.60;99.90;;;;;;5040170;28;20059;-76
2023/10/22 03:41:36;;;;;;;2.50;0.88;;;11.60;99.90;;;;;;5039516;28;20049;-76
2023/10/22 03:44:01;;;;;;;2.90;1.25;;;11.60;99.90;;;;;;5040329;28;20392;-76
2023/10/22 03:46:27;;;;;;;3.03;1.73;;;11.60;99.90;;;;;;5039964;28;20072;-76
2023/10/22 03:48:54;;;;;;;3.42;1.13;;;11.60;99.90;;;;;;5041305;28;20045;-76
2023/10/22 03:51:19;;;;;;;2.78;1.27;;;11.60;99.90;;;;;;5041070;28;20059;-76
2023/10/22 03:53:45;;;;;;;1.73;1.15;;;11.60;99.90;;;;;;5040675;28;20041;-76
2023/10/22 03:56:11;;;;;;;9.45;1.63;;;11.60;99.90;;;;;;5039424;28;20052;-77
2023/10/22 03:58:36;;;;;;;1.30;0.85;;;11.60;99.90;;;;;;5040160;28;20444;-76
2023/10/22 04:01:02;;;;;;;2.75;1.27;;;11.70;99.90;;;;;;5039695;28;20041;-76
2023/10/22 04:03:27;;;;;;;2.92;0.98;;;11.70;99.90;;;;;;5039453;28;20064;-76
2023/10/22 04:05:57;;;;;;;1.08;0.98;;;11.70;99.90;;;;;;5048119;28;20045;-76
2023/10/22 04:08:24;;;;;;;3.30;1.45;;;11.70;99.90;;;;;;5044708;28;20083;-77
2023/10/22 04:10:50;;;;;;;2.63;1.17;;;11.70;99.90;;;;;;5053933;28;20040;-77
2023/10/22 04:13:16;;;;;;;2.72;1.48;;;11.70;99.90;;;;;;5043931;28;20063;-76
2023/10/22 04:15:41;;;;;;;3.78;1.50;;;11.70;99.90;;;;;;5038832;28;20059;-77
2023/10/22 04:18:07;;;;;;;1.98;1.40;;;11.70;99.90;;;;;;5029468;28;20044;-77
2023/10/22 04:20:35;;;;;;;3.72;1.92;;;11.80;99.90;;;;;;5058806;28;20072;-77
2023/10/22 04:23:01;;;;;;;3.42;1.67;;;11.70;99.90;;;;;;5038047;28;20044;-76
2023/10/22 04:25:30;;;;;;;2.92;1.85;;;11.70;99.90;;;;;;5039594;28;20040;-76
2023/10/22 04:27:55;;;;;;;5.20;2.22;;;11.80;99.90;;;;;;5039626;28;20045;-77
2023/10/22 04:30:21;;;;;;;4.75;2.10;;;11.80;99.90;;;;;;5039928;28;20545;-77
2023/10/22 04:32:46;;;;;;;5.20;2.33;;;11.80;99.90;;;;;;5039963;28;20051;-76
2023/10/22 04:35:12;;;;;;;4.47;2.60;;;11.80;99.90;;;;;;5039255;28;20044;-77
2023/10/22 04:37:38;;;;;;;5.45;2.20;;;11.80;99.90;;;;;;5038888;28;20057;-77
2023/10/22 04:40:04;;;;;;;5.60;2.88;;;11.80;99.90;;;;;;5039830;28;20080;-77
2023/10/22 04:42:31;;;;;;;5.38;3.08;;;11.80;99.90;;;;;;5038721;28;20060;-77
2023/10/22 04:44:57;;;;;;;5.22;3.10;;;11.80;99.90;;;;;;5040100;28;20053;-76
2023/10/22 04:47:22;;;;;;;7.80;3.63;;;11.80;99.90;;;;;;5043623;28;20040;-77
2023/10/22 04:49:50;;;;;;;5.65;3.30;;;11.80;99.90;;;;;;5043337;28;20545;-76
2023/10/22 04:52:31;;;;;;;6.35;3.20;;;11.90;99.90;;;;;;5042493;28;20087;-77
2023/10/22 04:55:01;;;;;;;8.00;3.58;;;11.90;99.90;;;;;;5042623;28;20107;-77
2023/10/22 04:57:27;;;;;;;11.95;4.97;;;11.90;99.90;;;;;;5042577;28;20739;-77
2023/10/22 04:59:53;;;;;;;13.50;4.05;;;11.90;99.90;;;;;;5042537;28;20037;-76
2023/10/22 05:02:19;;;;;;;8.63;4.05;;;11.90;99.90;;;;;;5044330;28;20037;-77
2023/10/22 05:04:48;;;;;;;8.82;4.60;;;11.90;99.90;;;;;;5035088;28;20048;-78
2023/10/22 05:07:14;;;;;;;8.25;4.00;;;12.00;99.90;;;;;;5055145;28;20043;-76
2023/10/22 05:09:40;;;;;;;9.70;3.95;;;12.00;99.90;;;;;;5059451;28;20048;-78
2023/10/22 05:12:06;;;;;;;12.02;3.45;;;12.00;99.90;;;;;;5051822;28;20059;-77
2023/10/22 05:14:31;;;;;;;5.88;2.97;;;12.00;99.90;;;;;;5042436;28;20127;-77
2023/10/22 05:16:57;;;;;;;4.75;2.78;;;12.00;99.90;;;;;;5042816;28;20589;-77
2023/10/22 05:19:23;;;;;;;4.30;1.75;;;12.10;99.90;;;;;;5042579;28;20048;-78
2023/10/22 05:21:48;;;;;;;1.95;1.25;;;12.00;99.90;;;;;;5046555;28;20479;-77
2023/10/22 05:24:14;;;;;;;2.25;0.90;;;12.00;99.90;;;;;;5043707;28;20049;-77
2023/10/22 05:26:40;;;;;;;1.63;1.00;;;12.00;99.90;;;;;;5042309;28;20041;-77
2023/10/22 05:29:06;;;;;;;2.22;0.90;;;11.90;99.90;;;;;;5044336;28;20037;-77
2023/10/22 05:31:32;;;;;;;2.70;0.90;;;11.90;99.90;;;;;;5042475;28;20095;-78
2023/10/22 05:33:57;;;;;;;6.65;1.13;;;11.80;99.90;;;;;;5025118;28;20091;-78
2023/10/22 05:36:24;;;;;;;3.20;1.25;;;11.70;99.90;;;;;;5059618;28;20037;-78
2023/10/22 05:38:50;;;;;;;1.45;0.73;;;11.70;99.90;;;;;;5043402;28;20052;-78
2023/10/22 05:41:22;;;;;;;1.02;0.60;;;11.70;99.90;;;;;;5040957;28;20478;-77
2023/10/22 05:43:50;;;;;;;1.98;0.90;;;11.60;99.90;;;;;;5042255;28;20403;-77
2023/10/22 05:46:15;;;;;;;1.58;1.25;;;11.60;99.90;;;;;;5042027;28;20041;-77
2023/10/22 05:48:41;;;;;;;7.53;1.10;;;11.60;99.90;;;;;;5024705;28;20036;-77
2023/10/22 05:51:06;;;;;;;2.40;0.80;;;11.60;99.90;;;;;;5042765;28;20140;-77
2023/10/22 05:53:32;;;;;;;3.25;1.00;;;11.60;99.90;;;;;;5040701;28;20049;-78
2023/10/22 05:55:58;;;;;;;6.20;1.20;;;11.60;99.90;;;;;;5041328;28;20435;-77
2023/10/22 05:58:25;;;;;;;5.25;0.95;;;11.60;99.90;;;;;;5023194;28;20041;-77
2023/10/22 06:00:51;;;;;;;3.10;0.90;;;11.60;99.90;;;;;;5018224;28;20049;-78
2023/10/22 06:03:16;;;;;;;1.55;1.15;;;11.60;99.90;;;;;;5042691;28;20112;-77
2023/10/22 06:05:42;;;;;;;4.72;1.60;;;11.70;99.90;;;;;;5024903;28;20590;-77
2023/10/22 06:08:08;;;;;;;1.65;0.68;;;11.60;99.90;;;;;;5040524;28;20483;-78
2023/10/22 06:10:41;;;;;;;1.20;0.90;;;11.70;99.90;;;;;;5041909;28;20055;-77
2023/10/22 06:13:07;;;;;;;4.43;1.00;;;11.70;99.90;;;;;;5042443;28;20063;-78
2023/10/22 06:15:35;;;;;;;3.80;0.88;;;11.60;99.90;;;;;;5041832;28;20061;-77
2023/10/22 06:18:01;;;;;;;3.22;0.93;;;11.60;99.90;;;;;;5027069;28;20037;-77
2023/10/22 06:20:30;;;;;;;0.77;0.77;;;11.60;99.90;;;;;;5041012;28;20041;-77
2023/10/22 06:22:56;;;;;;;3.13;1.33;;;11.60;99.90;;;;;;5023728;28;20075;-76
2023/10/22 06:25:21;;;;;;;2.63;0.60;;;11.60;99.90;;;;;;5041091;28;20041;-77
2023/10/22 06:27:47;;;;;;;1.55;0.82;;;11.60;99.90;;;;;;5040278;28;20486;-78
2023/10/22 06:30:13;;;;;;;0.80;0.80;;;11.60;99.90;;;;;;5045756;28;20509;-77
2023/10/22 06:32:38;;;;;;;1.20;1.10;;;11.50;99.90;;;;;;5044747;28;20407;-77
2023/10/22 06:35:05;;;;;;;2.67;0.90;;;11.50;99.90;;;;;;5046584;28;20583;-77
2023/10/22 06:37:31;;;;;;;1.42;1.25;;;11.50;99.90;;;;;;5061363;28;20049;-78
2023/10/22 06:39:58;;;;;;;3.20;0.90;;;11.50;99.90;;;;;;5041426;28;20407;-78
2023/10/22 06:42:26;;;;;;;2.70;0.77;;;11.50;99.90;;;;;;5024083;28;20102;-77
2023/10/22 06:44:51;;;;;;;2.45;0.77;;;11.50;99.90;;;;;;5043436;28;20179;-77
2023/10/22 06:47:17;;;;;;;1.73;1.10;;;11.50;99.90;;;;;;5028111;28;20468;-77
2023/10/22 06:49:43;;;;;;;3.72;1.77;;;11.50;99.90;;;;;;5031828;28;20511;-77
2023/10/22 06:52:09;;;;;;;3.83;0.95;;;11.40;99.90;;;;;;5037122;28;20045;-76
2023/10/22 06:54:34;;;;;;;6.47;1.08;;;11.40;99.90;;;;;;5034041;28;20103;-77
2023/10/22 06:57:00;;;;;;;4.80;1.42;;;11.50;99.90;;;;;;5036537;28;20033;-77
2023/10/22 06:59:26;;;;;;;1.92;0.80;;;11.50;99.90;;;;;;5038702;28;20049;-77
2023/10/22 07:01:51;;;;;;;2.20;1.27;;;11.50;99.90;;;;;;5023732;28;20037;-77
2023/10/22 07:04:20;;;;;;;8.23;1.48;;;11.50;99.90;;;;;;5040035;28;20478;-76
2023/10/22 07:06:45;;;;;;;1.48;1.35;;;11.50;99.90;;;;;;5030775;28;20052;-77
2023/10/22 07:09:11;;;;;;;6.53;1.90;;;11.50;99.90;;;;;;5036359;28;20041;-77
2023/10/22 07:11:38;;;;;;;3.97;1.23;;;11.50;99.90;;;;;;5041378;28;20127;-77
2023/10/22 07:14:04;;;;;;;2.00;1.80;;;11.50;99.90;;;;;;5038839;28;20050;-77
2023/10/22 07:16:32;;;;;;;2.25;1.63;;;11.50;99.90;;;;;;5037613;28;20055;-78
2023/10/22 07:18:57;;;;;;;4.72;1.65;;;11.50;99.90;;;;;;5040539;28;20094;-77
2023/10/22 07:21:23;;;;;;;12.32;1.88;;;11.50;99.90;;;;;;5017886;28;20439;-77
2023/10/22 07:23:49;;;;;;;3.45;2.22;;;11.50;99.90;;;;;;5028019;28;20128;-77
2023/10/22 07:26:14;;;;;;;2.75;0.85;;;11.50;99.90;;;;;;5039628;28;20048;-77
2023/10/22 07:28:44;;;;;;;3.10;0.90;;;11.50;99.90;;;;;;5040349;28;20491;-76
2023/10/22 07:31:11;;;;;;;1.92;1.33;;;11.50;99.90;;;;;;5039608;28;20053;-77
2023/10/22 07:33:37;;;;;;;5.80;1.20;;;11.50;99.90;;;;;;5032766;28;20518;-76
2023/10/22 07:36:07;;;;;;;1.45;1.08;;;11.60;99.90;;;;;;5029905;28;20078;-76
2023/10/22 07:38:33;;;;;;;1.40;1.17;;;11.50;99.90;;;;;;5024093;28;20050;-76
2023/10/22 07:40:59;;;;;;;4.53;1.55;;;11.50;99.90;;;;;;5021645;28;20048;-76
2023/10/22 07:43:28;;;;;;;1.70;1.27;;;11.60;99.90;;;;;;5019618;28;20041;-83
2023/10/22 07:45:58;;;;;;;2.95;1.67;;;11.60;99.90;;;;;;5022728;28;20486;-76
2023/10/22 07:48:23;;;;;;;6.00;1.40;;;11.60;99.90;;;;;;5041183;28;20556;-76
2023/10/22 07:50:49;;;;;;;1.52;1.30;;;11.60;99.90;;;;;;5042046;28;20037;-76
2023/10/22 07:53:15;;;;;;;3.03;1.30;;;11.60;99.90;;;;;;5038980;28;20399;-75
2023/10/22 07:55:42;;;;;;;5.28;1.35;;;11.60;99.90;;;;;;5043148;28;20037;-76
2023/10/22 07:58:07;;;;;;;2.78;0.77;;;11.60;99.90;;;;;;5024014;28;20048;-76
2023/10/22 08:00:33;;;;;;;5.80;0.88;;;11.60;99.90;;;;;;5052242;28;20045;-76
2023/10/22 08:02:59;;;;;;;0.68;0.68;;;11.70;99.90;;;;;;5038349;28;20304;-76
2023/10/22 08:05:24;;;;;;;1.17;0.70;;;11.70;99.90;;;;;;5021237;28;20489;-77
2023/10/22 08:07:50;;;;;;;1.50;0.57;;;11.70;99.90;;;;;;5039653;28;20040;-77
2023/10/22 08:10:16;;;;;;;3.25;1.17;;;11.70;99.90;;;;;;5027966;28;20076;-76
2023/10/22 08:12:41;;;;;;;2.63;0.70;;;11.70;99.90;;;;;;5027150;28;20053;-76
2023/10/22 08:15:08;;;;;;;1.55;0.50;;;11.70;99.90;;;;;;5023692;28;20396;-76
2023/10/22 08:17:34;;;;;;;1.33;0.65;;;11.70;99.90;;;;;;5012970;28;20845;-76
2023/10/22 08:20:00;;;;;;;5.60;0.70;;;11.70;99.90;;;;;;5023935;28;20083;-76
2023/10/22 08:22:25;;;;;;;0.95;0.65;;;11.70;99.90;;;;;;5031886;28;20240;-75
2023/10/22 08:24:51;;;;;;;2.22;0.43;;;11.80;99.90;;;;;;5039806;28;20395;-75
2023/10/22 08:27:16;;;;;;;1.77;0.50;;;11.70;99.90;;;;;;5039459;28;20097;-75
2023/10/22 08:29:42;;;;;;;0.60;0.40;;;11.80;99.90;;;;;;5037385;28;20568;-75
2023/10/22 08:32:07;;;;;;;3.38;0.55;;;11.70;99.90;;;;;;5032088;28;20566;-75
2023/10/22 08:34:33;;;;;;;1.05;0.60;;;11.80;99.90;;;;;;5030978;28;20045;-75
2023/10/22 08:36:59;;;;;;;3.03;0.30;;;11.80;99.90;;;;;;5035104;28;20064;-75
2023/10/22 08:39:28;;;;;;;2.70;0.40;;;11.80;99.90;;;;;;5042191;28;20539;-75
2023/10/22 08:42:01;;;;;;;0.93;0.47;;;11.80;99.90;;;;;;5041553;28;20120;-75
2023/10/22 08:44:33;;;;;;;2.47;0.60;;;11.80;99.90;;;;;;5040782;28;20102;-75
2023/10/22 08:46:58;;;;;;;2.55;0.50;;;11.80;99.90;;;;;;5041833;28;20045;-75
2023/10/22 08:49:26;;;;;;;2.05;0.65;;;11.90;99.90;;;;;;5041161;28;20044;-75
2023/10/22 08:51:51;;;;;;;0.85;0.60;;;11.90;99.90;;;;;;5024732;28;20166;-75
2023/10/22 08:54:17;;;;;;;1.92;0.40;;;11.90;99.90;;;;;;5042814;28;20071;-75
2023/10/22 08:56:43;;;;;;;1.08;0.65;;;12.00;99.90;;;;;;5041440;28;20071;-75
2023/10/22 08:59:10;;;;;;;1.10;0.60;;;12.00;99.90;;;;;;5042111;28;20534;-75
2023/10/22 09:01:36;;;;;;;1.55;0.40;;;12.00;99.90;;;;;;5043289;28;20075;-75
2023/10/22 09:04:01;;;;;;;3.15;0.45;;;12.00;99.90;;;;;;5041328;28;20037;-75
2023/10/22 09:06:27;;;;;;;0.88;0.40;;;12.00;99.90;;;;;;5041600;28;20584;-78
2023/10/22 09:08:53;;;;;;;0.60;0.60;;;12.00;99.90;;;;;;5024731;28;20064;-75
2023/10/22 09:11:20;;;;;;;2.38;0.55;;;12.00;99.90;;;;;;5042131;28;20044;-75
2023/10/22 09:13:46;;;;;;;2.10;0.40;;;12.10;99.90;;;;;;5038035;28;20048;-76
2023/10/22 09:16:25;;;;;;;0.30;0.30;;;12.20;99.90;;;;;;5042492;28;20056;-77
2023/10/22 09:18:52;;;;;;;3.45;0.40;;;12.20;99.90;;;;;;5039951;28;20053;-76
2023/10/22 09:21:17;;;;;;;1.48;0.95;;;12.30;99.90;;;;;;5036750;28;20045;-75
2023/10/22 09:23:43;;;;;;;2.92;0.50;;;12.20;99.90;;;;;;5041192;28;20698;-76
2023/10/22 09:26:09;;;;;;;0.47;0.47;;;12.20;99.90;;;;;;5043239;28;20038;-75
2023/10/22 09:28:35;;;;;;;1.67;0.50;;;12.30;99.90;;;;;;5040583;28;20049;-76
2023/10/22 09:31:04;;;;;;;2.42;0.30;;;12.20;99.90;;;;;;5042045;28;20392;-76
2023/10/22 09:33:38;;;;;;;0.77;0.77;;;12.20;99.90;;;;;;5024201;28;20056;-76
2023/10/22 09:36:04;;;;;;;0.57;0.38;;;12.20;99.90;;;;;;5039549;28;20241;-76
2023/10/22 09:38:43;;;;;;;0.65;0.52;;;12.20;99.90;;;;;;5038121;28;20055;-76
2023/10/22 09:41:13;;;;;;;0.68;0.60;;;12.20;99.90;;;;;;5042505;28;20036;-76
2023/10/22 09:43:39;;;;;;;1.15;0.40;;;12.20;99.90;;;;;;5055921;28;20123;-76
2023/10/22 09:46:08;;;;;;;3.53;0.70;;;12.20;99.90;;;;;;5042339;28;20144;-76
2023/10/22 09:48:35;;;;;;;2.65;0.30;;;12.30;99.90;;;;;;5031116;28;20053;-75
2023/10/22 09:51:04;;;;;;;1.05;0.70;;;12.30;99.90;;;;;;5034095;28;20079;-76
2023/10/22 09:53:33;;;;;;;1.20;0.45;;;12.30;99.90;;;;;;5051476;28;20557;-76
2023/10/22 09:56:01;;;;;;;3.60;0.60;;;12.30;99.90;;;;;;5047652;28;20036;-75
2023/10/22 09:58:30;;;;;;;0.55;0.55;;;12.30;99.90;;;;;;5041707;28;20345;-77
2023/10/22 10:00:58;;;;;;;0.57;0.30;;;12.30;99.90;;;;;;5042342;28;20407;-76
2023/10/22 10:03:24;;;;;;;0.88;0.40;;;12.30;99.90;;;;;;5041806;28;20380;-76
2023/10/22 10:05:51;;;;;;;2.00;0.40;;;12.30;99.90;;;;;;5054537;28;20048;-76
2023/10/22 10:08:18;;;;;;;2.33;0.60;;;12.30;99.90;;;;;;5047374;28;20033;-75
2023/10/22 10:10:45;;;;;;;0.50;0.50;;;12.30;99.90;;;;;;5037869;28;20218;-76
2023/10/22 10:13:11;;;;;;;0.30;0.20;;;12.30;99.90;;;;;;5042302;28;20083;-75
2023/10/22 10:15:38;;;;;;;3.63;0.40;;;12.40;99.90;;;;;;5026170;28;20226;-75
2023/10/22 10:18:07;;;;;;;1.20;0.20;;;12.40;99.90;;;;;;5039541;28;20049;-77
2023/10/22 10:20:35;;;;;;;0.52;0.40;;;12.50;99.90;;;;;;5024355;28;20037;-76
2023/10/22 10:23:18;;;;;;;0.70;0.38;;;12.50;99.90;;;;;;5021770;28;20041;-76
2023/10/22 10:25:44;;;;;;;2.03;0.20;;;12.60;99.90;;;;;;5021718;28;20045;-76
2023/10/22 10:28:10;;;;;;;1.02;0.30;;;12.70;99.90;;;;;;5004993;28;20226;-78
2023/10/22 10:30:37;;;;;;;1.45;0.85;;;12.70;99.90;;;;;;5045757;28;20483;-76
2023/10/22 10:33:03;;;;;;;0.68;0.40;;;12.70;99.90;;;;;;5061502;28;20521;-76
2023/10/22 10:35:30;;;;;;;6.68;1.05;;;12.80;99.90;;;;;;5062294;28;20080;-76
2023/10/22 10:38:14;;;;;;;1.00;0.52;;;12.80;99.90;;;;;;5060591;28;20368;-78
2023/10/22 10:40:46;;;;;;;0.95;0.85;;;12.80;99.90;;;;;;5061363;28;20120;-76
2023/10/22 10:43:12;;;;;;;2.05;0.65;;;12.80;99.90;;;;;;5060436;28;20044;-77
2023/10/22 10:45:43;;;;;;;2.75;0.35;;;12.70;99.90;;;;;;5044311;28;20036;-77
2023/10/22 10:48:41;;;;;;;0.40;0.40;;;12.70;99.90;;;;;;5018319;28;20052;-76
2023/10/22 10:51:22;;;;;;;2.17;0.40;;;12.70;99.90;;;;;;5011362;28;20048;-76
2023/10/22 10:54:03;;;;;;;0.75;0.43;;;12.60;99.90;;;;;;5044203;28;20081;-77
2023/10/22 10:56:49;;;;;;;0.32;0.32;;;12.60;99.90;;;;;;5025963;28;20080;-76
2023/10/22 10:59:27;;;;;;;0.98;0.40;;;12.60;99.90;;;;;;5041628;28;20106;-78
2023/10/22 11:02:19;;;;;;;0.20;0.15;;;12.70;99.90;;;;;;5022713;28;20068;-77
2023/10/22 11:04:46;;;;;;;0.43;0.43;;;12.60;99.90;;;;;;5034398;28;20526;-77
2023/10/22 11:07:12;;;;;;;0.50;0.38;;;12.60;99.90;;;;;;5038595;28;20075;-77
2023/10/22 11:09:39;;;;;;;0.90;0.32;;;12.60;99.90;;;;;;5045233;28;20044;-77
2023/10/22 11:12:06;;;;;;;1.50;0.60;;;12.60;99.90;;;;;;5040144;28;20063;-76
2023/10/22 11:14:36;;;;;;;1.80;0.28;;;12.60;99.90;;;;;;5039459;28;20128;-76
2023/10/22 11:17:03;;;;;;;1.65;0.43;;;12.60;99.90;;;;;;5040369;28;20072;-76
2023/10/22 11:19:31;;;;;;;0.17;0.17;;;12.50;99.90;;;;;;5040862;28;20044;-77
2023/10/22 11:21:58;;;;;;;2.05;0.20;;;12.50;99.90;;;;;;5038554;28;20275;-76
2023/10/22 11:24:34;;;;;;;3.72;0.47;;;12.50;99.90;;;;;;5041874;28;20037;-76
2023/10/22 11:27:02;;;;;;;0.30;0.30;;;12.50;99.90;;;;;;5039557;28;20048;-76
2023/10/22 11:29:28;;;;;;;0.65;0.52;;;12.50;99.90;;;;;;5054295;28;20388;-75
2023/10/22 11:31:57;;;;;;;0.73;0.20;;;12.50;99.90;;;;;;5057275;28;20041;-76
2023/10/22 11:34:23;;;;;;;0.47;0.47;;;12.50;99.90;;;;;;5022611;28;20689;-76
2023/10/22 11:36:59;;;;;;;0.30;0.30;;;12.50;99.90;;;;;;5040631;28;20063;-76
2023/10/22 11:39:33;;;;;;;0.85;0.60;;;12.60;99.90;;;;;;5040977;28;20053;-76
2023/10/22 11:41:59;;;;;;;0.40;0.20;;;12.60;99.90;;;;;;5040063;28;20580;-75
2023/10/22 11:44:31;;;;;;;2.22;0.30;;;12.70;99.90;;;;;;5043760;28;20036;-75
2023/10/22 11:46:59;;;;;;;0.20;0.20;;;12.70;99.90;;;;;;5040698;28;20473;-76
2023/10/22 11:49:24;;;;;;;1.08;0.35;;;12.70;99.90;;;;;;5059590;28;20037;-76
2023/10/22 11:51:50;;;;;;;2.22;0.30;;;12.70;99.90;;;;;;5054389;28;20045;-76
2023/10/22 11:54:15;;;;;;;1.98;0.32;;;12.70;99.90;;;;;;5040838;28;20398;-76
2023/10/22 11:56:41;;;;;;;0.30;0.30;;;12.70;99.90;;;;;;5063019;28;20048;-76
2023/10/22 11:59:07;;;;;;;0.73;0.40;;;12.80;99.90;;;;;;5053731;28;20510;-76
2023/10/22 12:01:33;;;;;;;0.60;0.32;;;12.70;99.90;;;;;;5041998;28;20182;-76
2023/10/22 12:03:59;;;;;;;4.45;0.43;;;12.70;99.90;;;;;;5044526;28;20147;-76
2023/10/22 12:06:25;;;;;;;2.25;0.20;;;12.70;99.90;;;;;;5024206;28;20079;-76
2023/10/22 12:08:51;;;;;;;0.43;0.35;;;12.70;99.90;;;;;;5042625;28;20041;-76
2023/10/22 12:11:16;;;;;;;2.28;0.40;;;12.70;99.90;;;;;;5025254;28;20406;-76
2023/10/22 12:13:42;;;;;;;1.10;0.85;;;12.60;99.90;;;;;;5043151;28;20119;-76
2023/10/22 12:16:07;;;;;;;2.58;0.50;;;12.60;99.90;;;;;;5042673;28;20412;-75
2023/10/22 12:18:33;;;;;;;3.60;0.55;;;12.60;99.90;;;;;;5035235;28;20041;-76
2023/10/22 12:20:59;;;;;;;1.23;0.15;;;12.60;99.90;;;;;;5034637;28;20478;-76
2023/10/22 12:23:24;;;;;;;0.20;0.20;;;12.50;99.90;;;;;;5040399;28;20103;-76
2023/10/22 12:25:50;;;;;;;0.30;0.30;;;12.50;99.90;;;;;;5037965;28;20127;-76
2023/10/22 12:28:16;;;;;;;0.60;0.60;;;12.50;99.90;;;;;;5037296;28;20321;-76
2023/10/22 12:30:41;;;;;;;0.95;0.63;;;12.50;99.90;;;;;;5036998;28;20110;-76
2023/10/22 12:33:10;;;;;;;1.08;0.47;;;12.50;99.90;;;;;;5046045;28;20416;-76
2023/10/22 12:35:41;;;;;;;1.02;0.40;;;12.40;99.90;;;;;;5041039;28;20048;-76
2023/10/22 12:38:07;;;;;;;0.27;0.27;;;12.40;99.90;;;;;;5040428;28;20487;-75
2023/10/22 12:40:34;;;;;;;0.52;0.30;;;12.40;99.90;;;;;;5040574;28;20047;-75
2023/10/22 12:43:04;;;;;;;0.52;0.30;;;12.50;99.90;;;;;;5035183;28;20366;-77
2023/10/22 12:45:29;;;;;;;1.02;0.30;;;12.50;99.90;;;;;;5055791;28;20048;-76